createdAt,value
2023-04-09T00:00:02.676Z,0
2023-04-09T00:05:02.567Z,0
2023-04-09T00:10:02.752Z,0
2023-04-09T00:15:02.726Z,0
2023-04-09T00:20:02.807Z,0.04
2023-04-09T00:25:02.777Z,0.114
2023-04-09T00:30:02.813Z,0.122
2023-04-09T00:35:02.778Z,0.17200000000000001
2023-04-09T00:40:02.837Z,0.17400000000000002
2023-04-09T00:45:02.694Z,0.163
2023-04-09T00:50:02.954Z,0.126
2023-04-09T00:55:02.771Z,0.125
2023-04-09T01:00:02.777Z,0.125
2023-04-09T01:05:02.827Z,0.126
2023-04-09T01:10:02.712Z,0.113
2023-04-09T01:15:02.668Z,0
2023-04-09T01:20:02.679Z,0
2023-04-09T01:25:04.118Z,0.006
2023-04-09T01:30:02.639Z,0
2023-04-09T01:35:02.745Z,0
2023-04-09T01:40:02.663Z,0
2023-04-09T01:45:02.662Z,0
2023-04-09T01:50:02.672Z,0.074
2023-04-09T01:55:02.691Z,0.126
2023-04-09T02:00:02.653Z,0.127
2023-04-09T02:05:02.697Z,0.136
2023-04-09T02:10:02.693Z,0.176
2023-04-09T02:15:02.665Z,0.17500000000000002
2023-04-09T02:20:02.780Z,0.155
2023-04-09T02:25:02.735Z,0.126
2023-04-09T02:30:02.755Z,0.107
2023-04-09T02:35:02.738Z,0
2023-04-09T02:40:02.703Z,0
2023-04-09T02:45:02.698Z,0
2023-04-09T02:50:02.835Z,0
2023-04-09T02:55:02.792Z,0
2023-04-09T03:00:02.720Z,0.002
2023-04-09T03:05:02.774Z,0.003
2023-04-09T03:10:02.747Z,0.108
2023-04-09T03:15:02.744Z,0.11
2023-04-09T03:20:02.804Z,0.112
2023-04-09T03:25:02.765Z,0.121
2023-04-09T03:30:02.812Z,0.129
2023-04-09T03:35:02.744Z,0.126
2023-04-09T03:40:02.756Z,0.149
2023-04-09T03:45:02.748Z,0.17400000000000002
2023-04-09T03:50:02.850Z,0.14200000000000002
2023-04-09T03:55:02.794Z,0
2023-04-09T04:00:02.834Z,0
2023-04-09T04:05:02.788Z,0
2023-04-09T04:10:02.803Z,0
2023-04-09T04:15:03.043Z,0
2023-04-09T04:20:03.009Z,0.097
2023-04-09T04:25:03.953Z,0.11800000000000001
2023-04-09T04:30:02.934Z,0.166
2023-04-09T04:35:01.266Z,7.469
2023-04-09T04:40:01.210Z,28.999000000000002
2023-04-09T04:45:01.212Z,28.621000000000002
2023-04-09T04:50:01.229Z,36.808
2023-04-09T04:55:01.313Z,34.669000000000004
2023-04-09T05:00:01.258Z,51.424
2023-04-09T05:05:01.254Z,74.545
2023-04-09T05:10:01.230Z,102.424
2023-04-09T05:15:01.287Z,133.761
2023-04-09T05:20:01.261Z,157.038
2023-04-09T05:25:01.318Z,186.119
2023-04-09T05:30:01.282Z,324.517
2023-04-09T05:35:01.262Z,427.75100000000003
2023-04-09T05:40:01.236Z,441.382
2023-04-09T05:45:01.297Z,454.772
2023-04-09T05:50:01.298Z,477.641
2023-04-09T05:55:01.330Z,510.985
2023-04-09T06:00:01.559Z,623.748
2023-04-09T06:05:01.564Z,678.427
2023-04-09T06:10:01.522Z,707.1750000000001
2023-04-09T06:15:01.494Z,717.593
2023-04-09T06:20:01.468Z,780.442
2023-04-09T06:25:01.551Z,813.621
2023-04-09T06:30:01.413Z,882.408
2023-04-09T06:35:01.403Z,926.529
2023-04-09T06:40:01.784Z,1031.479
2023-04-09T06:45:01.352Z,1104.224
2023-04-09T06:50:01.360Z,1265.296
2023-04-09T06:55:01.330Z,1442.3990000000001
2023-04-09T07:00:01.371Z,1569.663
2023-04-09T07:05:01.488Z,1727.813
2023-04-09T07:10:01.340Z,1846.048
2023-04-09T07:15:01.434Z,1850.223
2023-04-09T07:20:01.431Z,1858.964
2023-04-09T07:25:04.011Z,1698.175
2023-04-09T07:30:01.356Z,1813.362
2023-04-09T07:35:01.635Z,1994.613
2023-04-09T07:40:01.440Z,2148.71
2023-04-09T07:45:01.383Z,2208.079
2023-04-09T07:50:01.434Z,2122.688
2023-04-09T07:55:01.474Z,2283.524
2023-04-09T08:00:01.388Z,2270.735
2023-04-09T08:05:01.483Z,2169.635
2023-04-09T08:10:01.444Z,2252.654
2023-04-09T08:15:01.428Z,2268.748
2023-04-09T08:20:01.379Z,2218.891
2023-04-09T08:25:02.751Z,2227.762
2023-04-09T08:30:01.434Z,2414.387
2023-04-09T08:35:01.448Z,2548.427
2023-04-09T08:40:01.484Z,2605.9900000000002
2023-04-09T08:45:01.456Z,2780.538
2023-04-09T08:50:01.480Z,2930.896
2023-04-09T08:55:03.194Z,3128.4590000000003
2023-04-09T09:00:01.488Z,3439.1240000000003
2023-04-09T09:05:01.657Z,4292.615
2023-04-09T09:10:01.603Z,3650.4
2023-04-09T09:15:01.596Z,3063.495
2023-04-09T09:20:01.645Z,3638.272
2023-04-09T09:25:01.681Z,3543.455
2023-04-09T09:30:01.664Z,3213.309
2023-04-09T09:35:01.582Z,4221.671
2023-04-09T09:40:01.680Z,5311.682
2023-04-09T09:45:01.647Z,5754.848
2023-04-09T09:50:01.616Z,4980.675
2023-04-09T09:55:01.653Z,4069.524
2023-04-09T10:00:01.585Z,3094.033
2023-04-09T10:05:01.588Z,7988.097
2023-04-09T10:10:01.577Z,8010.3550000000005
2023-04-09T10:15:01.609Z,8208.793
2023-04-09T10:20:01.704Z,3722.036
2023-04-09T10:25:01.588Z,3208.954
2023-04-09T10:30:01.546Z,3337.652
2023-04-09T10:35:01.500Z,5108.686
2023-04-09T10:40:01.547Z,6104.21
2023-04-09T10:45:01.547Z,8322.157000000001
2023-04-09T10:50:01.523Z,7993.804
2023-04-09T10:55:01.608Z,7763.613
2023-04-09T11:00:01.535Z,7845.281
2023-04-09T11:05:01.705Z,7973.961
2023-04-09T11:10:01.585Z,8411.313
2023-04-09T11:15:01.547Z,7371.803
2023-04-09T11:20:01.621Z,5449.039
2023-04-09T11:25:01.633Z,4560.166
2023-04-09T11:30:01.543Z,4169.106
2023-04-09T11:35:01.587Z,5520.834
2023-04-09T11:40:01.615Z,5008.254
2023-04-09T11:45:01.536Z,4198.411
2023-04-09T11:50:01.581Z,4117.845
2023-04-09T11:55:02.373Z,4140.463
2023-04-09T12:00:03.204Z,3957.367
2023-04-09T12:05:01.793Z,3778.9680000000003
2023-04-09T12:15:01.858Z,5229.8820000000005
2023-04-09T12:20:01.636Z,7740.225
2023-04-09T12:25:01.617Z,6872.102
2023-04-09T12:30:01.618Z,5282.368
2023-04-09T12:35:01.637Z,4506.541
2023-04-09T12:40:01.639Z,4972.8460000000005
2023-04-09T12:45:01.758Z,4719.487
2023-04-09T12:50:01.679Z,3186.852
2023-04-09T12:55:01.685Z,3145.373
2023-04-09T13:00:01.654Z,3328.803
2023-04-09T13:05:01.682Z,5135.64
2023-04-09T13:10:01.687Z,8613.735
2023-04-09T13:15:01.589Z,8100.481
2023-04-09T13:20:01.784Z,7686.168000000001
2023-04-09T13:25:01.695Z,7234.7390000000005
2023-04-09T13:30:01.690Z,7070.336
2023-04-09T13:35:01.757Z,6889.021
2023-04-09T13:40:01.692Z,6815.088
2023-04-09T13:45:01.694Z,6696.331
2023-04-09T13:50:01.809Z,6635.419
2023-04-09T13:55:01.745Z,6545.519
2023-04-09T14:00:01.713Z,6356.207
2023-04-09T14:05:01.750Z,6314.24
2023-04-09T14:10:01.819Z,6178.8460000000005
2023-04-09T14:15:01.702Z,6066.8550000000005
2023-04-09T14:20:01.857Z,5938.722
2023-04-09T14:25:01.756Z,5791.793000000001
2023-04-09T14:30:01.692Z,5761.087
2023-04-09T14:35:01.726Z,5686.928
2023-04-09T14:40:01.788Z,5607.204
2023-04-09T14:45:01.767Z,5473.986
2023-04-09T14:50:01.840Z,5371.137
2023-04-09T14:55:01.821Z,5253.657
2023-04-09T15:00:01.738Z,5106.476
2023-04-09T15:05:01.791Z,4938.9490000000005
2023-04-09T15:10:01.802Z,4818.312
2023-04-09T15:15:01.808Z,4683.572
2023-04-09T15:20:01.810Z,4550.933
2023-04-09T15:25:01.763Z,4392.378
2023-04-09T15:30:01.771Z,4197.932
2023-04-09T15:35:01.793Z,4033.382
2023-04-09T15:40:01.873Z,3846.338
2023-04-09T15:45:01.833Z,3685.1220000000003
2023-04-09T15:50:01.922Z,3531.145
2023-04-09T15:55:01.797Z,3323.447
2023-04-09T16:00:01.771Z,3156.608
2023-04-09T16:05:01.815Z,3004.917
2023-04-09T16:10:01.797Z,2843.301
2023-04-09T16:15:01.803Z,2665.984
2023-04-09T16:20:01.841Z,2493.4790000000003
2023-04-09T16:25:01.879Z,2315.092
2023-04-09T16:30:01.877Z,2128.91
2023-04-09T16:35:01.847Z,1941.723
2023-04-09T16:40:01.893Z,1769.607
2023-04-09T16:45:01.843Z,1598.7060000000001
2023-04-09T16:50:01.878Z,1407.068
2023-04-09T16:55:01.863Z,1207.791
2023-04-09T17:00:01.836Z,889.506
2023-04-09T17:05:01.906Z,584.423
2023-04-09T17:10:01.837Z,438.563
2023-04-09T17:15:01.897Z,380.435
2023-04-09T17:20:01.939Z,251.829
2023-04-09T17:25:01.907Z,178.028
2023-04-09T17:30:01.891Z,131.995
2023-04-09T17:35:01.924Z,79.774
2023-04-09T17:40:01.907Z,37.608000000000004
2023-04-09T17:45:01.906Z,22.925
2023-04-09T17:50:01.883Z,30.659
2023-04-09T17:55:01.983Z,12.882
2023-04-09T18:00:02.134Z,0.002
2023-04-09T18:05:02.192Z,0
2023-04-09T18:10:02.027Z,0
2023-04-09T18:15:02.032Z,0
2023-04-09T18:20:02.153Z,0
2023-04-09T18:25:02.091Z,0.113
2023-04-09T18:30:01.987Z,0.116
2023-04-09T18:35:01.877Z,0.128
2023-04-09T18:40:02.694Z,0.127
2023-04-09T18:45:01.949Z,0.163
2023-04-09T18:50:01.915Z,0.17300000000000001
2023-04-09T18:55:01.947Z,0.18
2023-04-09T19:00:01.966Z,0.14
2023-04-09T19:05:02.092Z,0.127
2023-04-09T19:10:01.981Z,0.126
2023-04-09T19:15:02.056Z,0.128
2023-04-09T19:20:02.011Z,0.128
2023-04-09T19:25:02.012Z,0.113
2023-04-09T19:30:01.955Z,0.125
2023-04-09T19:35:01.992Z,0.166
2023-04-09T19:40:02.007Z,0.046
2023-04-09T19:45:02.019Z,0
2023-04-09T19:50:02.152Z,0.001
2023-04-09T19:55:02.199Z,0.005
2023-04-09T20:00:02.281Z,0.014
2023-04-09T20:05:02.197Z,0.05
2023-04-09T20:10:02.097Z,0.129
2023-04-09T20:15:02.022Z,0.129
2023-04-09T20:20:02.064Z,0.139
2023-04-09T20:25:02.039Z,0.167
2023-04-09T20:30:02.051Z,0.163
2023-04-09T20:35:02.079Z,0.135
2023-04-09T20:40:02.166Z,0.124
2023-04-09T20:45:02.227Z,0.13
2023-04-09T20:50:02.106Z,0.133
2023-04-09T20:55:02.118Z,0.128
2023-04-09T21:00:02.122Z,0.129
2023-04-09T21:05:08.680Z,0.109
2023-04-09T21:10:02.118Z,0.001
2023-04-09T21:15:02.071Z,0
2023-04-09T21:20:02.046Z,0
2023-04-09T21:25:02.340Z,0
2023-04-09T21:30:02.261Z,0
2023-04-09T21:35:02.054Z,0.003
2023-04-09T21:40:02.118Z,0.115
2023-04-09T21:45:02.177Z,0.115
2023-04-09T21:50:02.265Z,0.116
2023-04-09T21:55:02.328Z,0.14
2023-04-09T22:00:02.286Z,0.179
2023-04-09T22:05:02.275Z,0.178
2023-04-09T22:10:02.196Z,0.157
2023-04-09T22:15:02.287Z,0.128
2023-04-09T22:20:02.238Z,0.128
2023-04-09T22:25:02.184Z,0.125
2023-04-09T22:30:02.161Z,0.127
2023-04-09T22:35:02.157Z,0.027
2023-04-09T22:40:02.269Z,0
2023-04-09T22:45:02.187Z,0
2023-04-09T22:50:02.273Z,0
2023-04-09T22:55:02.212Z,0
2023-04-09T23:00:02.140Z,0
2023-04-09T23:05:02.273Z,0.05
2023-04-09T23:10:02.241Z,0.115
2023-04-09T23:15:02.219Z,0.113
2023-04-09T23:20:02.239Z,0.112
2023-04-09T23:25:02.166Z,0.114
2023-04-09T23:30:02.225Z,0.124
2023-04-09T23:35:02.173Z,0.17400000000000002
2023-04-09T23:40:02.240Z,0.171
2023-04-09T23:45:02.205Z,0.156
2023-04-09T23:50:02.246Z,0.125
2023-04-09T23:55:02.239Z,0
